sensor_id;sensor_type;location;lat;lon;timestamp;temperature;humidity
35129;DHT22;21301;43.626;10.580;2023-08-01T00:03:55;23.30;99.90
35129;DHT22;21301;43.626;10.580;2023-08-01T00:06:21;23.30;99.90
35129;DHT22;21301;43.626;10.580;2023-08-01T00:08:48;23.20;99.90
35129;DHT22;21301;43.626;10.580;2023-08-01T00:11:15;23.20;99.90
35129;DHT22;21301;43.626;10.580;2023-08-01T00:17:28;23.40;99.90
35129;DHT22;21301;43.626;10.580;2023-08-01T00:19:54;23.50;99.90
35129;DHT22;21301;43.626;10.580;2023-08-01T00:29:20;23.70;99.90
35129;DHT22;21301;43.626;10.580;2023-08-01T00:35:33;23.80;99.90
35129;DHT22;21301;43.626;10.580;2023-08-01T00:37:59;23.90;99.90
35129;DHT22;21301;43.626;10.580;2023-08-01T00:44:12;24.00;99.90
35129;DHT22;21301;43.626;10.580;2023-08-01T00:46:38;24.00;99.90
35129;DHT22;21301;43.626;10.580;2023-08-01T00:49:04;24.10;99.90
35129;DHT22;21301;43.626;10.580;2023-08-01T00:51:31;24.10;99.90
35129;DHT22;21301;43.626;10.580;2023-08-01T00:57:48;24.20;99.90
35129;DHT22;21301;43.626;10.580;2023-08-01T01:00:14;24.20;99.90
35129;DHT22;21301;43.626;10.580;2023-08-01T01:10:14;24.30;99.90
35129;DHT22;21301;43.626;10.580;2023-08-01T01:12:40;24.30;99.90
35129;DHT22;21301;43.626;10.580;2023-08-01T01:18:53;24.20;99.90
35129;DHT22;21301;43.626;10.580;2023-08-01T01:25:07;24.20;99.90
35129;DHT22;21301;43.626;10.580;2023-08-01T01:27:35;24.20;99.90
35129;DHT22;21301;43.626;10.580;2023-08-01T01:37:44;24.10;99.90
35129;DHT22;21301;43.626;10.580;2023-08-01T01:40:10;24.70;99.90
35129;DHT22;21301;43.626;10.580;2023-08-01T01:46:22;24.70;99.90
35129;DHT22;21301;43.626;10.580;2023-08-01T01:56:23;24.90;99.90
35129;DHT22;21301;43.626;10.580;2023-08-01T02:02:37;25.00;99.90
35129;DHT22;21301;43.626;10.580;2023-08-01T02:05:02;25.20;99.90
35129;DHT22;21301;43.626;10.580;2023-08-01T02:11:18;25.20;99.90
35129;DHT22;21301;43.626;10.580;2023-08-01T02:13:44;24.90;99.90
35129;DHT22;21301;43.626;10.580;2023-08-01T02:16:10;24.80;99.90
35129;DHT22;21301;43.626;10.580;2023-08-01T02:18:36;25.10;99.90
35129;DHT22;21301;43.626;10.580;2023-08-01T02:24:50;25.40;99.90
35129;DHT22;21301;43.626;10.580;2023-08-01T02:27:15;25.10;99.90
35129;DHT22;21301;43.626;10.580;2023-08-01T02:29:42;25.40;99.90
35129;DHT22;21301;43.626;10.580;2023-08-01T02:32:34;25.50;99.90
35129;DHT22;21301;43.626;10.580;2023-08-01T02:35:00;25.50;99.90
35129;DHT22;21301;43.626;10.580;2023-08-01T02:37:27;25.50;99.90
35129;DHT22;21301;43.626;10.580;2023-08-01T02:39:53;25.40;99.90
35129;DHT22;21301;43.626;10.580;2023-08-01T02:42:19;25.60;99.90
35129;DHT22;21301;43.626;10.580;2023-08-01T02:44:46;25.60;99.90
35129;DHT22;21301;43.626;10.580;2023-08-01T02:47:12;25.60;99.90
35129;DHT22;21301;43.626;10.580;2023-08-01T02:49:38;25.20;99.90
35129;DHT22;21301;43.626;10.580;2023-08-01T02:52:03;25.00;99.90
35129;DHT22;21301;43.626;10.580;2023-08-01T02:54:30;24.90;99.90
35129;DHT22;21301;43.626;10.580;2023-08-01T02:56:56;24.80;99.90
35129;DHT22;21301;43.626;10.580;2023-08-01T02:59:23;24.70;99.90
35129;DHT22;21301;43.626;10.580;2023-08-01T03:01:49;24.70;99.90
35129;DHT22;21301;43.626;10.580;2023-08-01T03:04:15;24.80;99.90
35129;DHT22;21301;43.626;10.580;2023-08-01T03:06:42;24.80;99.90
35129;DHT22;21301;43.626;10.580;2023-08-01T03:09:10;24.80;99.90
35129;DHT22;21301;43.626;10.580;2023-08-01T03:11:36;24.70;99.90
35129;DHT22;21301;43.626;10.580;2023-08-01T03:14:02;24.50;99.90
35129;DHT22;21301;43.626;10.580;2023-08-01T03:16:30;24.30;99.90
35129;DHT22;21301;43.626;10.580;2023-08-01T03:18:56;24.40;99.90
35129;DHT22;21301;43.626;10.580;2023-08-01T03:21:22;24.60;99.90
35129;DHT22;21301;43.626;10.580;2023-08-01T03:23:52;24.60;99.90
35129;DHT22;21301;43.626;10.580;2023-08-01T03:26:17;24.60;99.90
35129;DHT22;21301;43.626;10.580;2023-08-01T03:28:43;24.70;99.90
35129;DHT22;21301;43.626;10.580;2023-08-01T03:31:09;24.60;99.90
35129;DHT22;21301;43.626;10.580;2023-08-01T03:33:35;24.70;99.90
35129;DHT22;21301;43.626;10.580;2023-08-01T03:36:01;24.70;99.90
35129;DHT22;21301;43.626;10.580;2023-08-01T03:38:27;24.90;99.90
35129;DHT22;21301;43.626;10.580;2023-08-01T03:40:53;24.80;99.90
35129;DHT22;21301;43.626;10.580;2023-08-01T03:43:19;24.60;99.90
35129;DHT22;21301;43.626;10.580;2023-08-01T03:49:36;24.30;99.90
35129;DHT22;21301;43.626;10.580;2023-08-01T03:52:06;24.40;99.90
35129;DHT22;21301;43.626;10.580;2023-08-01T03:54:32;24.40;99.90
35129;DHT22;21301;43.626;10.580;2023-08-01T03:56:59;24.40;99.90
35129;DHT22;21301;43.626;10.580;2023-08-01T03:59:26;24.40;99.90
35129;DHT22;21301;43.626;10.580;2023-08-01T04:01:52;24.50;99.90
35129;DHT22;21301;43.626;10.580;2023-08-01T04:04:19;24.50;99.90
35129;DHT22;21301;43.626;10.580;2023-08-01T04:06:45;24.60;99.90
35129;DHT22;21301;43.626;10.580;2023-08-01T04:09:11;24.70;99.90
35129;DHT22;21301;43.626;10.580;2023-08-01T04:11:37;24.80;99.90
35129;DHT22;21301;43.626;10.580;2023-08-01T04:14:03;24.80;99.90
35129;DHT22;21301;43.626;10.580;2023-08-01T04:16:34;24.70;99.90
35129;DHT22;21301;43.626;10.580;2023-08-01T04:19:01;24.60;99.90
35129;DHT22;21301;43.626;10.580;2023-08-01T04:21:27;24.50;99.90
35129;DHT22;21301;43.626;10.580;2023-08-01T04:23:54;24.60;99.90
35129;DHT22;21301;43.626;10.580;2023-08-01T04:26:20;24.40;99.90
35129;DHT22;21301;43.626;10.580;2023-08-01T04:28:46;24.50;99.90
35129;DHT22;21301;43.626;10.580;2023-08-01T04:31:13;24.40;99.90
35129;DHT22;21301;43.626;10.580;2023-08-01T04:33:39;24.10;99.90
35129;DHT22;21301;43.626;10.580;2023-08-01T04:36:08;24.20;99.90
35129;DHT22;21301;43.626;10.580;2023-08-01T04:38:33;24.30;99.90
35129;DHT22;21301;43.626;10.580;2023-08-01T04:40:59;24.20;99.90
35129;DHT22;21301;43.626;10.580;2023-08-01T04:43:25;24.20;99.90
35129;DHT22;21301;43.626;10.580;2023-08-01T04:45:51;24.30;99.90
35129;DHT22;21301;43.626;10.580;2023-08-01T04:48:18;24.50;99.90
35129;DHT22;21301;43.626;10.580;2023-08-01T04:50:44;24.70;99.90
35129;DHT22;21301;43.626;10.580;2023-08-01T04:53:10;25.00;99.90
35129;DHT22;21301;43.626;10.580;2023-08-01T04:55:37;25.30;99.90
35129;DHT22;21301;43.626;10.580;2023-08-01T04:58:02;25.50;99.90
35129;DHT22;21301;43.626;10.580;2023-08-01T05:00:28;25.80;99.90
35129;DHT22;21301;43.626;10.580;2023-08-01T05:02:54;25.90;99.90
35129;DHT22;21301;43.626;10.580;2023-08-01T05:05:20;25.80;99.90
35129;DHT22;21301;43.626;10.580;2023-08-01T05:07:45;25.90;99.90
35129;DHT22;21301;43.626;10.580;2023-08-01T05:10:11;26.10;99.90
35129;DHT22;21301;43.626;10.580;2023-08-01T05:12:37;26.30;99.90
35129;DHT22;21301;43.626;10.580;2023-08-01T05:15:03;26.60;99.90
35129;DHT22;21301;43.626;10.580;2023-08-01T05:17:29;26.80;99.90
35129;DHT22;21301;43.626;10.580;2023-08-01T05:19:54;26.90;99.90
35129;DHT22;21301;43.626;10.580;2023-08-01T05:22:21;26.70;99.90
35129;DHT22;21301;43.626;10.580;2023-08-01T05:24:46;26.60;99.90
35129;DHT22;21301;43.626;10.580;2023-08-01T05:27:12;26.30;99.90
35129;DHT22;21301;43.626;10.580;2023-08-01T05:29:38;25.90;99.90
35129;DHT22;21301;43.626;10.580;2023-08-01T05:32:04;25.60;99.90
35129;DHT22;21301;43.626;10.580;2023-08-01T05:34:34;25.40;99.90
35129;DHT22;21301;43.626;10.580;2023-08-01T05:37:01;25.40;99.90
35129;DHT22;21301;43.626;10.580;2023-08-01T05:39:27;25.40;99.90
35129;DHT22;21301;43.626;10.580;2023-08-01T05:41:53;25.50;99.90
35129;DHT22;21301;43.626;10.580;2023-08-01T05:44:19;25.50;99.90
35129;DHT22;21301;43.626;10.580;2023-08-01T05:46:44;25.50;99.90
35129;DHT22;21301;43.626;10.580;2023-08-01T05:49:12;25.50;99.90
35129;DHT22;21301;43.626;10.580;2023-08-01T05:51:38;25.40;99.90
35129;DHT22;21301;43.626;10.580;2023-08-01T05:54:05;25.30;99.90
35129;DHT22;21301;43.626;10.580;2023-08-01T05:56:31;25.20;99.90
35129;DHT22;21301;43.626;10.580;2023-08-01T05:58:57;25.30;99.90
35129;DHT22;21301;43.626;10.580;2023-08-01T06:01:24;25.70;99.90
35129;DHT22;21301;43.626;10.580;2023-08-01T06:03:50;26.20;99.90
35129;DHT22;21301;43.626;10.580;2023-08-01T06:06:16;26.60;99.90
35129;DHT22;21301;43.626;10.580;2023-08-01T06:08:41;27.00;99.90
35129;DHT22;21301;43.626;10.580;2023-08-01T06:11:07;27.60;99.90
35129;DHT22;21301;43.626;10.580;2023-08-01T06:13:33;27.90;99.90
35129;DHT22;21301;43.626;10.580;2023-08-01T06:15:59;28.30;99.90
35129;DHT22;21301;43.626;10.580;2023-08-01T06:18:25;28.50;99.90
35129;DHT22;21301;43.626;10.580;2023-08-01T06:20:51;28.70;99.90
35129;DHT22;21301;43.626;10.580;2023-08-01T06:23:17;28.50;99.90
35129;DHT22;21301;43.626;10.580;2023-08-01T06:25:43;28.70;99.90
35129;DHT22;21301;43.626;10.580;2023-08-01T06:28:08;28.90;99.90
35129;DHT22;21301;43.626;10.580;2023-08-01T06:30:34;29.00;99.90
35129;DHT22;21301;43.626;10.580;2023-08-01T06:33:00;29.30;99.90
35129;DHT22;21301;43.626;10.580;2023-08-01T06:35:26;29.30;99.90
35129;DHT22;21301;43.626;10.580;2023-08-01T06:37:51;29.40;99.90
35129;DHT22;21301;43.626;10.580;2023-08-01T06:40:17;29.50;99.90
35129;DHT22;21301;43.626;10.580;2023-08-01T06:42:43;29.90;99.90
35129;DHT22;21301;43.626;10.580;2023-08-01T06:45:09;30.10;99.90
35129;DHT22;21301;43.626;10.580;2023-08-01T06:47:36;30.10;99.90
35129;DHT22;21301;43.626;10.580;2023-08-01T06:50:02;30.00;99.90
35129;DHT22;21301;43.626;10.580;2023-08-01T06:52:28;30.00;99.90
35129;DHT22;21301;43.626;10.580;2023-08-01T06:54:54;30.20;99.90
35129;DHT22;21301;43.626;10.580;2023-08-01T06:57:19;30.10;99.90
35129;DHT22;21301;43.626;10.580;2023-08-01T06:59:45;30.20;99.90
35129;DHT22;21301;43.626;10.580;2023-08-01T07:02:11;30.40;99.90
35129;DHT22;21301;43.626;10.580;2023-08-01T07:04:37;30.60;99.90
35129;DHT22;21301;43.626;10.580;2023-08-01T07:07:03;30.50;99.90
35129;DHT22;21301;43.626;10.580;2023-08-01T07:09:30;30.60;99.90
35129;DHT22;21301;43.626;10.580;2023-08-01T07:11:56;30.70;99.90
35129;DHT22;21301;43.626;10.580;2023-08-01T07:14:22;30.30;99.90
35129;DHT22;21301;43.626;10.580;2023-08-01T07:16:47;30.30;99.90
35129;DHT22;21301;43.626;10.580;2023-08-01T07:19:14;30.50;99.90
35129;DHT22;21301;43.626;10.580;2023-08-01T07:21:40;30.60;99.90
35129;DHT22;21301;43.626;10.580;2023-08-01T07:24:06;30.30;99.90
35129;DHT22;21301;43.626;10.580;2023-08-01T07:26:32;30.60;99.90
35129;DHT22;21301;43.626;10.580;2023-08-01T07:28:59;30.90;99.90
35129;DHT22;21301;43.626;10.580;2023-08-01T07:31:29;30.70;99.90
35129;DHT22;21301;43.626;10.580;2023-08-01T07:33:55;30.40;99.90
35129;DHT22;21301;43.626;10.580;2023-08-01T07:36:21;30.00;99.90
35129;DHT22;21301;43.626;10.580;2023-08-01T07:38:47;30.40;99.90
35129;DHT22;21301;43.626;10.580;2023-08-01T07:41:13;29.90;99.90
35129;DHT22;21301;43.626;10.580;2023-08-01T07:43:39;30.00;99.90
35129;DHT22;21301;43.626;10.580;2023-08-01T07:46:04;30.30;99.90
35129;DHT22;21301;43.626;10.580;2023-08-01T07:48:30;30.40;99.90
35129;DHT22;21301;43.626;10.580;2023-08-01T07:50:56;30.60;99.90
35129;DHT22;21301;43.626;10.580;2023-08-01T07:53:23;30.20;99.90
35129;DHT22;21301;43.626;10.580;2023-08-01T07:55:49;30.30;99.90
35129;DHT22;21301;43.626;10.580;2023-08-01T07:58:16;30.30;99.90
35129;DHT22;21301;43.626;10.580;2023-08-01T08:00:42;30.30;99.90
35129;DHT22;21301;43.626;10.580;2023-08-01T08:03:07;29.90;99.90
35129;DHT22;21301;43.626;10.580;2023-08-01T08:05:33;29.50;99.90
35129;DHT22;21301;43.626;10.580;2023-08-01T08:08:04;29.50;99.90
35129;DHT22;21301;43.626;10.580;2023-08-01T08:10:30;29.60;99.90
35129;DHT22;21301;43.626;10.580;2023-08-01T08:12:57;29.80;99.90
35129;DHT22;21301;43.626;10.580;2023-08-01T08:15:23;29.90;99.90
35129;DHT22;21301;43.626;10.580;2023-08-01T08:17:51;29.70;99.90
35129;DHT22;21301;43.626;10.580;2023-08-01T08:20:17;29.40;99.90
35129;DHT22;21301;43.626;10.580;2023-08-01T08:22:44;29.50;99.90
35129;DHT22;21301;43.626;10.580;2023-08-01T08:25:10;29.70;99.90
35129;DHT22;21301;43.626;10.580;2023-08-01T08:27:35;29.60;99.90
35129;DHT22;21301;43.626;10.580;2023-08-01T08:30:01;29.80;99.90
35129;DHT22;21301;43.626;10.580;2023-08-01T08:32:27;29.70;99.90
35129;DHT22;21301;43.626;10.580;2023-08-01T08:34:53;29.50;99.90
35129;DHT22;21301;43.626;10.580;2023-08-01T08:37:19;29.50;99.90
35129;DHT22;21301;43.626;10.580;2023-08-01T08:39:44;29.70;99.90
35129;DHT22;21301;43.626;10.580;2023-08-01T08:42:10;29.70;99.90
35129;DHT22;21301;43.626;10.580;2023-08-01T08:44:42;29.90;99.90
35129;DHT22;21301;43.626;10.580;2023-08-01T08:47:10;29.50;99.90
35129;DHT22;21301;43.626;10.580;2023-08-01T08:49:36;29.80;99.90
35129;DHT22;21301;43.626;10.580;2023-08-01T08:52:04;29.90;99.90
35129;DHT22;21301;43.626;10.580;2023-08-01T08:54:31;30.30;99.90
35129;DHT22;21301;43.626;10.580;2023-08-01T08:56:58;31.00;99.90
35129;DHT22;21301;43.626;10.580;2023-08-01T08:59:25;31.00;99.90
35129;DHT22;21301;43.626;10.580;2023-08-01T09:01:53;31.10;99.90
35129;DHT22;21301;43.626;10.580;2023-08-01T09:04:19;31.40;99.90
35129;DHT22;21301;43.626;10.580;2023-08-01T09:06:46;31.30;99.90
35129;DHT22;21301;43.626;10.580;2023-08-01T09:09:14;31.50;99.90
35129;DHT22;21301;43.626;10.580;2023-08-01T09:11:48;31.90;99.90
35129;DHT22;21301;43.626;10.580;2023-08-01T09:14:15;31.80;99.90
35129;DHT22;21301;43.626;10.580;2023-08-01T09:16:42;31.50;99.90
35129;DHT22;21301;43.626;10.580;2023-08-01T09:19:08;31.90;99.90
35129;DHT22;21301;43.626;10.580;2023-08-01T09:21:36;31.50;99.90
35129;DHT22;21301;43.626;10.580;2023-08-01T09:26:36;31.50;99.90
35129;DHT22;21301;43.626;10.580;2023-08-01T09:29:03;31.60;99.90
35129;DHT22;21301;43.626;10.580;2023-08-01T09:31:31;31.90;99.90
35129;DHT22;21301;43.626;10.580;2023-08-01T09:33:57;32.00;99.90
35129;DHT22;21301;43.626;10.580;2023-08-01T09:36:23;32.10;99.90
35129;DHT22;21301;43.626;10.580;2023-08-01T09:38:50;32.20;99.90
35129;DHT22;21301;43.626;10.580;2023-08-01T09:41:20;32.20;99.90
35129;DHT22;21301;43.626;10.580;2023-08-01T09:43:49;32.10;99.90
35129;DHT22;21301;43.626;10.580;2023-08-01T09:46:16;32.50;99.90
35129;DHT22;21301;43.626;10.580;2023-08-01T09:48:42;32.90;99.90
35129;DHT22;21301;43.626;10.580;2023-08-01T09:51:13;33.50;99.90
35129;DHT22;21301;43.626;10.580;2023-08-01T09:53:51;33.40;99.90
35129;DHT22;21301;43.626;10.580;2023-08-01T09:56:26;33.20;99.90
35129;DHT22;21301;43.626;10.580;2023-08-01T09:58:54;33.60;99.70
35129;DHT22;21301;43.626;10.580;2023-08-01T10:01:23;33.60;99.50
35129;DHT22;21301;43.626;10.580;2023-08-01T10:03:51;33.10;99.70
35129;DHT22;21301;43.626;10.580;2023-08-01T10:06:22;32.30;99.90
35129;DHT22;21301;43.626;10.580;2023-08-01T10:08:50;32.20;99.90
35129;DHT22;21301;43.626;10.580;2023-08-01T10:11:21;31.80;99.90
35129;DHT22;21301;43.626;10.580;2023-08-01T10:13:47;32.10;99.90
35129;DHT22;21301;43.626;10.580;2023-08-01T10:16:14;32.50;99.90
35129;DHT22;21301;43.626;10.580;2023-08-01T10:18:41;33.10;99.80
35129;DHT22;21301;43.626;10.580;2023-08-01T10:21:11;33.10;99.90
35129;DHT22;21301;43.626;10.580;2023-08-01T10:23:39;33.10;99.60
35129;DHT22;21301;43.626;10.580;2023-08-01T10:26:07;32.90;99.40
35129;DHT22;21301;43.626;10.580;2023-08-01T10:28:38;32.50;99.70
35129;DHT22;21301;43.626;10.580;2023-08-01T10:31:15;31.80;99.90
35129;DHT22;21301;43.626;10.580;2023-08-01T10:33:48;32.20;99.90
35129;DHT22;21301;43.626;10.580;2023-08-01T10:36:22;33.10;99.90
35129;DHT22;21301;43.626;10.580;2023-08-01T10:38:57;33.50;99.30
35129;DHT22;21301;43.626;10.580;2023-08-01T10:41:31;33.90;99.20
35129;DHT22;21301;43.626;10.580;2023-08-01T10:47:00;34.20;98.30
35129;DHT22;21301;43.626;10.580;2023-08-01T10:49:43;33.80;98.00
35129;DHT22;21301;43.626;10.580;2023-08-01T10:52:24;33.80;98.20
35129;DHT22;21301;43.626;10.580;2023-08-01T10:54:59;33.50;98.10
35129;DHT22;21301;43.626;10.580;2023-08-01T10:57:27;33.30;98.50
35129;DHT22;21301;43.626;10.580;2023-08-01T10:59:56;32.80;98.60
35129;DHT22;21301;43.626;10.580;2023-08-01T11:02:29;33.00;98.80
35129;DHT22;21301;43.626;10.580;2023-08-01T11:05:06;32.60;98.40
35129;DHT22;21301;43.626;10.580;2023-08-01T11:07:35;31.90;99.10
35129;DHT22;21301;43.626;10.580;2023-08-01T11:10:10;32.20;99.10
35129;DHT22;21301;43.626;10.580;2023-08-01T11:12:43;32.50;98.90
35129;DHT22;21301;43.626;10.580;2023-08-01T11:15:10;32.20;99.20
35129;DHT22;21301;43.626;10.580;2023-08-01T11:17:40;32.40;99.10
35129;DHT22;21301;43.626;10.580;2023-08-01T11:20:07;32.30;98.80
35129;DHT22;21301;43.626;10.580;2023-08-01T11:22:38;31.80;99.00
35129;DHT22;21301;43.626;10.580;2023-08-01T11:25:04;31.60;99.50
35129;DHT22;21301;43.626;10.580;2023-08-01T11:27:31;31.80;99.20
35129;DHT22;21301;43.626;10.580;2023-08-01T11:29:59;31.80;99.40
35129;DHT22;21301;43.626;10.580;2023-08-01T11:32:36;32.40;99.40
35129;DHT22;21301;43.626;10.580;2023-08-01T11:35:02;31.80;99.20
35129;DHT22;21301;43.626;10.580;2023-08-01T11:37:29;32.00;99.10
35129;DHT22;21301;43.626;10.580;2023-08-01T11:39:56;32.60;98.60
35129;DHT22;21301;43.626;10.580;2023-08-01T11:42:23;32.80;98.50
35129;DHT22;21301;43.626;10.580;2023-08-01T11:44:49;32.60;98.20
35129;DHT22;21301;43.626;10.580;2023-08-01T11:47:16;32.20;98.40
35129;DHT22;21301;43.626;10.580;2023-08-01T11:49:47;32.20;98.40
35129;DHT22;21301;43.626;10.580;2023-08-01T11:52:26;33.00;98.20
35129;DHT22;21301;43.626;10.580;2023-08-01T11:54:55;33.50;97.60
35129;DHT22;21301;43.626;10.580;2023-08-01T11:57:21;32.60;97.80
35129;DHT22;21301;43.626;10.580;2023-08-01T11:59:50;33.20;97.80
35129;DHT22;21301;43.626;10.580;2023-08-01T12:02:26;33.50;97.40
35129;DHT22;21301;43.626;10.580;2023-08-01T12:04:53;33.00;96.80
35129;DHT22;21301;43.626;10.580;2023-08-01T12:07:20;33.00;97.40
35129;DHT22;21301;43.626;10.580;2023-08-01T12:09:59;32.90;97.10
35129;DHT22;21301;43.626;10.580;2023-08-01T12:12:28;32.70;96.70
35129;DHT22;21301;43.626;10.580;2023-08-01T12:14:54;32.40;97.50
35129;DHT22;21301;43.626;10.580;2023-08-01T12:17:22;32.20;98.00
35129;DHT22;21301;43.626;10.580;2023-08-01T12:19:48;32.70;97.90
35129;DHT22;21301;43.626;10.580;2023-08-01T12:22:15;32.90;97.70
35129;DHT22;21301;43.626;10.580;2023-08-01T12:24:43;32.70;97.80
35129;DHT22;21301;43.626;10.580;2023-08-01T12:27:10;32.00;98.40
35129;DHT22;21301;43.626;10.580;2023-08-01T12:29:36;32.30;98.50
35129;DHT22;21301;43.626;10.580;2023-08-01T12:32:04;32.40;98.60
35129;DHT22;21301;43.626;10.580;2023-08-01T12:34:32;32.00;98.10
35129;DHT22;21301;43.626;10.580;2023-08-01T12:36:58;32.10;98.20
35129;DHT22;21301;43.626;10.580;2023-08-01T12:39:24;31.60;98.50
35129;DHT22;21301;43.626;10.580;2023-08-01T12:41:52;32.00;99.00
35129;DHT22;21301;43.626;10.580;2023-08-01T12:44:20;32.50;98.40
35129;DHT22;21301;43.626;10.580;2023-08-01T12:46:52;31.90;98.30
35129;DHT22;21301;43.626;10.580;2023-08-01T12:49:21;31.60;98.20
35129;DHT22;21301;43.626;10.580;2023-08-01T12:51:46;31.20;99.00
35129;DHT22;21301;43.626;10.580;2023-08-01T12:54:13;31.00;98.90
35129;DHT22;21301;43.626;10.580;2023-08-01T12:56:41;31.70;98.80
35129;DHT22;21301;43.626;10.580;2023-08-01T12:59:07;31.70;98.20
35129;DHT22;21301;43.626;10.580;2023-08-01T13:01:37;31.80;98.20
35129;DHT22;21301;43.626;10.580;2023-08-01T13:04:04;31.80;98.50
35129;DHT22;21301;43.626;10.580;2023-08-01T13:06:31;32.10;98.40
35129;DHT22;21301;43.626;10.580;2023-08-01T13:08:57;31.30;98.70
35129;DHT22;21301;43.626;10.580;2023-08-01T13:11:25;31.20;99.40
35129;DHT22;21301;43.626;10.580;2023-08-01T13:13:55;31.60;99.10
35129;DHT22;21301;43.626;10.580;2023-08-01T13:16:23;31.80;98.90
35129;DHT22;21301;43.626;10.580;2023-08-01T13:22:36;31.40;98.90
35129;DHT22;21301;43.626;10.580;2023-08-01T13:25:02;31.00;99.80
35129;DHT22;21301;43.626;10.580;2023-08-01T13:27:34;30.70;99.90
35129;DHT22;21301;43.626;10.580;2023-08-01T13:30:00;31.60;99.60
35129;DHT22;21301;43.626;10.580;2023-08-01T13:32:27;31.50;99.40
35129;DHT22;21301;43.626;10.580;2023-08-01T13:34:54;32.20;99.30
35129;DHT22;21301;43.626;10.580;2023-08-01T13:37:20;32.10;99.30
35129;DHT22;21301;43.626;10.580;2023-08-01T13:39:45;31.50;99.00
35129;DHT22;21301;43.626;10.580;2023-08-01T13:42:13;31.80;99.10
35129;DHT22;21301;43.626;10.580;2023-08-01T13:44:40;31.40;99.50
35129;DHT22;21301;43.626;10.580;2023-08-01T13:47:06;31.20;99.90
35129;DHT22;21301;43.626;10.580;2023-08-01T13:49:35;30.90;99.90
35129;DHT22;21301;43.626;10.580;2023-08-01T13:52:04;30.40;99.90
35129;DHT22;21301;43.626;10.580;2023-08-01T13:54:31;29.80;99.90
35129;DHT22;21301;43.626;10.580;2023-08-01T13:56:57;29.90;99.90
35129;DHT22;21301;43.626;10.580;2023-08-01T13:59:23;29.80;99.90
35129;DHT22;21301;43.626;10.580;2023-08-01T14:01:50;29.80;99.90
35129;DHT22;21301;43.626;10.580;2023-08-01T14:04:16;29.40;99.90
35129;DHT22;21301;43.626;10.580;2023-08-01T14:06:42;29.70;99.90
35129;DHT22;21301;43.626;10.580;2023-08-01T14:09:09;29.50;99.90
35129;DHT22;21301;43.626;10.580;2023-08-01T14:11:36;29.40;99.90
35129;DHT22;21301;43.626;10.580;2023-08-01T14:14:03;29.40;99.90
35129;DHT22;21301;43.626;10.580;2023-08-01T14:16:31;29.50;99.90
35129;DHT22;21301;43.626;10.580;2023-08-01T14:19:00;29.10;99.90
35129;DHT22;21301;43.626;10.580;2023-08-01T14:21:27;29.30;99.90
35129;DHT22;21301;43.626;10.580;2023-08-01T14:23:53;29.50;99.90
35129;DHT22;21301;43.626;10.580;2023-08-01T14:26:20;29.10;99.90
35129;DHT22;21301;43.626;10.580;2023-08-01T14:28:46;29.10;99.90
35129;DHT22;21301;43.626;10.580;2023-08-01T14:31:12;29.00;99.90
35129;DHT22;21301;43.626;10.580;2023-08-01T14:33:38;28.90;99.90
35129;DHT22;21301;43.626;10.580;2023-08-01T14:36:08;28.90;99.90
35129;DHT22;21301;43.626;10.580;2023-08-01T14:38:35;28.60;99.90
35129;DHT22;21301;43.626;10.580;2023-08-01T14:41:04;28.50;99.90
35129;DHT22;21301;43.626;10.580;2023-08-01T14:43:33;28.60;99.90
35129;DHT22;21301;43.626;10.580;2023-08-01T14:46:00;29.10;99.90
35129;DHT22;21301;43.626;10.580;2023-08-01T14:48:27;29.10;99.90
35129;DHT22;21301;43.626;10.580;2023-08-01T14:50:53;29.00;99.90
35129;DHT22;21301;43.626;10.580;2023-08-01T14:53:19;29.10;99.90
35129;DHT22;21301;43.626;10.580;2023-08-01T14:55:45;29.50;99.90
35129;DHT22;21301;43.626;10.580;2023-08-01T14:58:10;29.80;99.90
35129;DHT22;21301;43.626;10.580;2023-08-01T15:00:37;30.10;99.90
35129;DHT22;21301;43.626;10.580;2023-08-01T15:03:02;29.90;99.40
35129;DHT22;21301;43.626;10.580;2023-08-01T15:05:29;29.80;99.90
35129;DHT22;21301;43.626;10.580;2023-08-01T15:07:55;29.70;99.90
35129;DHT22;21301;43.626;10.580;2023-08-01T15:10:22;29.50;99.90
35129;DHT22;21301;43.626;10.580;2023-08-01T15:12:48;29.80;99.90
35129;DHT22;21301;43.626;10.580;2023-08-01T15:15:14;29.80;99.70
35129;DHT22;21301;43.626;10.580;2023-08-01T15:17:40;29.70;99.50
35129;DHT22;21301;43.626;10.580;2023-08-01T15:20:06;30.00;99.10
35129;DHT22;21301;43.626;10.580;2023-08-01T15:22:32;30.10;98.50
35129;DHT22;21301;43.626;10.580;2023-08-01T15:24:59;29.60;98.90
35129;DHT22;21301;43.626;10.580;2023-08-01T15:27:25;29.60;99.60
35129;DHT22;21301;43.626;10.580;2023-08-01T15:29:51;29.40;99.90
35129;DHT22;21301;43.626;10.580;2023-08-01T15:40:32;29.80;99.90
35129;DHT22;21301;43.626;10.580;2023-08-01T15:42:57;29.90;99.90
35129;DHT22;21301;43.626;10.580;2023-08-01T15:45:23;29.80;99.90
35129;DHT22;21301;43.626;10.580;2023-08-01T15:47:50;29.60;99.90
35129;DHT22;21301;43.626;10.580;2023-08-01T15:50:16;29.60;99.90
35129;DHT22;21301;43.626;10.580;2023-08-01T15:52:42;29.20;99.90
35129;DHT22;21301;43.626;10.580;2023-08-01T15:55:08;29.20;99.90
35129;DHT22;21301;43.626;10.580;2023-08-01T15:57:35;29.60;99.90
35129;DHT22;21301;43.626;10.580;2023-08-01T16:00:00;29.60;99.90
35129;DHT22;21301;43.626;10.580;2023-08-01T16:02:37;29.40;99.90
35129;DHT22;21301;43.626;10.580;2023-08-01T16:05:03;29.00;99.90
35129;DHT22;21301;43.626;10.580;2023-08-01T16:07:30;28.80;99.90
35129;DHT22;21301;43.626;10.580;2023-08-01T16:09:57;29.00;99.90
35129;DHT22;21301;43.626;10.580;2023-08-01T16:12:24;28.90;99.90
35129;DHT22;21301;43.626;10.580;2023-08-01T16:14:50;28.60;99.90
35129;DHT22;21301;43.626;10.580;2023-08-01T16:17:15;28.50;99.90
35129;DHT22;21301;43.626;10.580;2023-08-01T16:19:41;28.40;99.90
35129;DHT22;21301;43.626;10.580;2023-08-01T16:22:08;28.20;99.90
35129;DHT22;21301;43.626;10.580;2023-08-01T16:24:35;28.30;99.90
35129;DHT22;21301;43.626;10.580;2023-08-01T16:27:01;28.50;99.90
35129;DHT22;21301;43.626;10.580;2023-08-01T16:29:26;28.80;99.90
35129;DHT22;21301;43.626;10.580;2023-08-01T16:31:52;28.80;99.90
35129;DHT22;21301;43.626;10.580;2023-08-01T16:34:18;28.80;99.90
35129;DHT22;21301;43.626;10.580;2023-08-01T16:36:44;28.50;99.90
35129;DHT22;21301;43.626;10.580;2023-08-01T16:39:09;28.50;99.90
35129;DHT22;21301;43.626;10.580;2023-08-01T16:41:35;28.50;99.90
35129;DHT22;21301;43.626;10.580;2023-08-01T16:44:01;28.60;99.90
35129;DHT22;21301;43.626;10.580;2023-08-01T16:46:27;28.80;99.90